sensor_id;sensor_type;location;lat;lon;timestamp;temperature;humidity
48806;DHT22;34625;47.176;27.548;2023-11-21T00:01:24;23.70;51.10
48806;DHT22;34625;47.176;27.548;2023-11-21T00:03:51;23.80;51.10
48806;DHT22;34625;47.176;27.548;2023-11-21T00:06:20;23.80;51.10
48806;DHT22;34625;47.176;27.548;2023-11-21T00:08:46;23.60;50.90
48806;DHT22;34625;47.176;27.548;2023-11-21T00:11:12;23.70;51.10
48806;DHT22;34625;47.176;27.548;2023-11-21T00:13:38;23.60;51.00
48806;DHT22;34625;47.176;27.548;2023-11-21T00:16:05;23.60;50.90
48806;DHT22;34625;47.176;27.548;2023-11-21T00:18:31;23.70;51.10
48806;DHT22;34625;47.176;27.548;2023-11-21T00:20:57;23.60;51.00
48806;DHT22;34625;47.176;27.548;2023-11-21T00:23:24;23.60;51.00
48806;DHT22;34625;47.176;27.548;2023-11-21T00:25:51;23.60;51.00
48806;DHT22;34625;47.176;27.548;2023-11-21T00:28:17;23.60;51.10
48806;DHT22;34625;47.176;27.548;2023-11-21T00:30:42;23.60;51.10
48806;DHT22;34625;47.176;27.548;2023-11-21T00:33:09;23.60;51.00
48806;DHT22;34625;47.176;27.548;2023-11-21T00:35:35;23.60;51.00
48806;DHT22;34625;47.176;27.548;2023-11-21T00:38:01;23.60;51.00
48806;DHT22;34625;47.176;27.548;2023-11-21T00:40:27;23.60;50.90
48806;DHT22;34625;47.176;27.548;2023-11-21T00:42:54;23.60;50.90
48806;DHT22;34625;47.176;27.548;2023-11-21T00:45:21;23.60;50.90
48806;DHT22;34625;47.176;27.548;2023-11-21T00:47:47;23.60;50.90
48806;DHT22;34625;47.176;27.548;2023-11-21T00:50:13;23.60;50.90
48806;DHT22;34625;47.176;27.548;2023-11-21T00:52:39;23.60;50.90
48806;DHT22;34625;47.176;27.548;2023-11-21T00:55:06;23.60;50.90
48806;DHT22;34625;47.176;27.548;2023-11-21T00:57:34;23.70;50.90
48806;DHT22;34625;47.176;27.548;2023-11-21T01:00:00;23.60;50.80
48806;DHT22;34625;47.176;27.548;2023-11-21T01:02:26;23.70;50.90
48806;DHT22;34625;47.176;27.548;2023-11-21T01:04:53;23.60;50.80
48806;DHT22;34625;47.176;27.548;2023-11-21T01:07:19;23.70;50.90
48806;DHT22;34625;47.176;27.548;2023-11-21T01:09:46;23.60;50.70
48806;DHT22;34625;47.176;27.548;2023-11-21T01:12:12;23.60;50.70
48806;DHT22;34625;47.176;27.548;2023-11-21T01:14:39;23.60;50.60
48806;DHT22;34625;47.176;27.548;2023-11-21T01:17:05;23.60;50.60
48806;DHT22;34625;47.176;27.548;2023-11-21T01:19:31;23.60;50.60
48806;DHT22;34625;47.176;27.548;2023-11-21T01:21:57;23.50;50.60
48806;DHT22;34625;47.176;27.548;2023-11-21T01:24:23;23.60;50.60
48806;DHT22;34625;47.176;27.548;2023-11-21T01:26:50;23.50;50.60
48806;DHT22;34625;47.176;27.548;2023-11-21T01:29:17;23.60;50.60
48806;DHT22;34625;47.176;27.548;2023-11-21T01:31:43;23.40;50.50
48806;DHT22;34625;47.176;27.548;2023-11-21T01:34:08;23.60;50.60
48806;DHT22;34625;47.176;27.548;2023-11-21T01:36:34;23.40;50.50
48806;DHT22;34625;47.176;27.548;2023-11-21T01:39:01;23.40;50.50
48806;DHT22;34625;47.176;27.548;2023-11-21T01:41:27;23.30;50.50
48806;DHT22;34625;47.176;27.548;2023-11-21T01:43:55;23.30;50.60
48806;DHT22;34625;47.176;27.548;2023-11-21T01:46:21;23.40;50.60
48806;DHT22;34625;47.176;27.548;2023-11-21T01:48:49;23.50;50.70
48806;DHT22;34625;47.176;27.548;2023-11-21T01:51:16;23.40;50.60
48806;DHT22;34625;47.176;27.548;2023-11-21T01:53:42;23.40;50.50
48806;DHT22;34625;47.176;27.548;2023-11-21T01:56:09;23.50;50.60
48806;DHT22;34625;47.176;27.548;2023-11-21T01:58:36;23.40;50.40
48806;DHT22;34625;47.176;27.548;2023-11-21T02:01:02;23.40;50.40
48806;DHT22;34625;47.176;27.548;2023-11-21T02:03:28;23.50;50.50
48806;DHT22;34625;47.176;27.548;2023-11-21T02:05:54;23.40;50.40
48806;DHT22;34625;47.176;27.548;2023-11-21T02:08:20;23.30;50.40
48806;DHT22;34625;47.176;27.548;2023-11-21T02:10:46;23.30;50.40
48806;DHT22;34625;47.176;27.548;2023-11-21T02:13:13;23.40;50.40
48806;DHT22;34625;47.176;27.548;2023-11-21T02:15:39;23.30;50.40
48806;DHT22;34625;47.176;27.548;2023-11-21T02:18:05;23.20;50.30
48806;DHT22;34625;47.176;27.548;2023-11-21T02:20:32;23.30;50.50
48806;DHT22;34625;47.176;27.548;2023-11-21T02:23:01;23.40;50.50
48806;DHT22;34625;47.176;27.548;2023-11-21T02:25:28;23.30;50.50
48806;DHT22;34625;47.176;27.548;2023-11-21T02:27:56;23.30;50.50
48806;DHT22;34625;47.176;27.548;2023-11-21T02:30:22;23.40;50.50
48806;DHT22;34625;47.176;27.548;2023-11-21T02:32:52;23.30;50.50
48806;DHT22;34625;47.176;27.548;2023-11-21T02:35:22;23.30;50.40
48806;DHT22;34625;47.176;27.548;2023-11-21T02:37:49;23.30;50.40
48806;DHT22;34625;47.176;27.548;2023-11-21T02:40:15;23.30;50.40
48806;DHT22;34625;47.176;27.548;2023-11-21T02:42:47;23.30;50.30
48806;DHT22;34625;47.176;27.548;2023-11-21T02:45:15;23.30;50.30
48806;DHT22;34625;47.176;27.548;2023-11-21T02:47:45;23.40;50.30
48806;DHT22;34625;47.176;27.548;2023-11-21T02:50:11;23.30;50.30
48806;DHT22;34625;47.176;27.548;2023-11-21T02:52:37;23.30;50.30
48806;DHT22;34625;47.176;27.548;2023-11-21T02:55:04;23.40;50.20
48806;DHT22;34625;47.176;27.548;2023-11-21T02:57:32;23.40;50.20
48806;DHT22;34625;47.176;27.548;2023-11-21T02:59:57;23.30;50.20
48806;DHT22;34625;47.176;27.548;2023-11-21T03:02:23;23.30;50.10
48806;DHT22;34625;47.176;27.548;2023-11-21T03:04:49;23.40;50.10
48806;DHT22;34625;47.176;27.548;2023-11-21T03:07:16;23.40;50.10
48806;DHT22;34625;47.176;27.548;2023-11-21T03:09:42;23.40;50.00
48806;DHT22;34625;47.176;27.548;2023-11-21T03:12:10;23.50;50.10
48806;DHT22;34625;47.176;27.548;2023-11-21T03:14:38;23.40;50.00
48806;DHT22;34625;47.176;27.548;2023-11-21T03:17:04;23.30;50.00
48806;DHT22;34625;47.176;27.548;2023-11-21T03:19:31;23.30;50.00
48806;DHT22;34625;47.176;27.548;2023-11-21T03:21:57;23.40;50.00
48806;DHT22;34625;47.176;27.548;2023-11-21T03:24:23;23.30;50.00
48806;DHT22;34625;47.176;27.548;2023-11-21T03:26:49;23.20;49.90
48806;DHT22;34625;47.176;27.548;2023-11-21T03:29:17;23.20;49.90
48806;DHT22;34625;47.176;27.548;2023-11-21T03:31:43;23.30;50.00
48806;DHT22;34625;47.176;27.548;2023-11-21T03:34:23;23.20;49.90
48806;DHT22;34625;47.176;27.548;2023-11-21T03:36:49;23.10;49.80
48806;DHT22;34625;47.176;27.548;2023-11-21T03:39:15;23.10;49.90
48806;DHT22;34625;47.176;27.548;2023-11-21T03:41:43;23.20;49.90
48806;DHT22;34625;47.176;27.548;2023-11-21T03:44:09;23.10;49.90
48806;DHT22;34625;47.176;27.548;2023-11-21T03:46:35;23.20;49.90
48806;DHT22;34625;47.176;27.548;2023-11-21T03:49:01;23.20;49.90
48806;DHT22;34625;47.176;27.548;2023-11-21T03:51:27;23.10;49.80
48806;DHT22;34625;47.176;27.548;2023-11-21T03:53:53;23.10;49.80
48806;DHT22;34625;47.176;27.548;2023-11-21T03:56:19;23.10;49.80
48806;DHT22;34625;47.176;27.548;2023-11-21T03:58:48;23.20;49.70
48806;DHT22;34625;47.176;27.548;2023-11-21T04:01:24;23.10;49.70
48806;DHT22;34625;47.176;27.548;2023-11-21T04:03:50;23.20;49.70
48806;DHT22;34625;47.176;27.548;2023-11-21T04:06:17;23.10;49.80
48806;DHT22;34625;47.176;27.548;2023-11-21T04:08:44;23.10;49.80
48806;DHT22;34625;47.176;27.548;2023-11-21T04:11:11;23.10;49.80
48806;DHT22;34625;47.176;27.548;2023-11-21T04:13:40;23.20;49.80
48806;DHT22;34625;47.176;27.548;2023-11-21T04:16:07;23.20;49.70
48806;DHT22;34625;47.176;27.548;2023-11-21T04:18:35;23.10;49.80
48806;DHT22;34625;47.176;27.548;2023-11-21T04:21:02;23.10;49.80
48806;DHT22;34625;47.176;27.548;2023-11-21T04:23:28;23.10;49.80
48806;DHT22;34625;47.176;27.548;2023-11-21T04:25:54;23.10;49.80
48806;DHT22;34625;47.176;27.548;2023-11-21T04:28:23;23.10;49.80
48806;DHT22;34625;47.176;27.548;2023-11-21T04:30:50;23.20;49.80
48806;DHT22;34625;47.176;27.548;2023-11-21T04:33:16;23.10;49.80
48806;DHT22;34625;47.176;27.548;2023-11-21T04:35:42;23.00;49.70
48806;DHT22;34625;47.176;27.548;2023-11-21T04:38:08;23.10;49.70
48806;DHT22;34625;47.176;27.548;2023-11-21T04:40:34;23.20;49.70
48806;DHT22;34625;47.176;27.548;2023-11-21T04:43:00;23.10;49.70
48806;DHT22;34625;47.176;27.548;2023-11-21T04:45:27;23.10;49.60
48806;DHT22;34625;47.176;27.548;2023-11-21T04:47:53;23.20;49.70
48806;DHT22;34625;47.176;27.548;2023-11-21T04:50:19;23.20;49.60
48806;DHT22;34625;47.176;27.548;2023-11-21T04:52:46;23.10;49.60
48806;DHT22;34625;47.176;27.548;2023-11-21T04:55:12;23.30;49.60
48806;DHT22;34625;47.176;27.548;2023-11-21T04:57:38;23.20;49.50
48806;DHT22;34625;47.176;27.548;2023-11-21T05:00:05;23.10;49.50
48806;DHT22;34625;47.176;27.548;2023-11-21T05:02:34;23.20;49.50
48806;DHT22;34625;47.176;27.548;2023-11-21T05:05:01;23.20;49.40
48806;DHT22;34625;47.176;27.548;2023-11-21T05:07:27;23.10;49.40
48806;DHT22;34625;47.176;27.548;2023-11-21T05:09:55;23.30;49.50
48806;DHT22;34625;47.176;27.548;2023-11-21T05:12:24;23.10;49.40
48806;DHT22;34625;47.176;27.548;2023-11-21T05:14:51;23.10;49.40
48806;DHT22;34625;47.176;27.548;2023-11-21T05:17:17;23.20;49.40
48806;DHT22;34625;47.176;27.548;2023-11-21T05:19:43;23.10;49.40
48806;DHT22;34625;47.176;27.548;2023-11-21T05:22:11;23.00;49.30
48806;DHT22;34625;47.176;27.548;2023-11-21T05:24:38;23.20;49.40
48806;DHT22;34625;47.176;27.548;2023-11-21T05:27:05;23.20;49.40
48806;DHT22;34625;47.176;27.548;2023-11-21T05:29:31;23.00;49.20
48806;DHT22;34625;47.176;27.548;2023-11-21T05:31:57;23.00;49.30
48806;DHT22;34625;47.176;27.548;2023-11-21T05:34:23;23.10;49.40
48806;DHT22;34625;47.176;27.548;2023-11-21T05:36:50;23.10;49.40
48806;DHT22;34625;47.176;27.548;2023-11-21T05:39:16;23.10;49.50
48806;DHT22;34625;47.176;27.548;2023-11-21T05:41:46;23.00;49.40
48806;DHT22;34625;47.176;27.548;2023-11-21T05:44:12;23.00;49.40
48806;DHT22;34625;47.176;27.548;2023-11-21T05:46:40;23.00;49.40
48806;DHT22;34625;47.176;27.548;2023-11-21T05:49:09;23.00;49.10
48806;DHT22;34625;47.176;27.548;2023-11-21T05:51:34;23.20;47.20
48806;DHT22;34625;47.176;27.548;2023-11-21T05:54:00;23.10;47.40
48806;DHT22;34625;47.176;27.548;2023-11-21T05:56:26;23.20;48.40
48806;DHT22;34625;47.176;27.548;2023-11-21T05:58:52;23.20;46.00
48806;DHT22;34625;47.176;27.548;2023-11-21T06:01:18;23.30;48.10
48806;DHT22;34625;47.176;27.548;2023-11-21T06:03:44;23.40;48.00
48806;DHT22;34625;47.176;27.548;2023-11-21T06:06:11;23.50;45.30
48806;DHT22;34625;47.176;27.548;2023-11-21T06:08:37;23.30;41.90
48806;DHT22;34625;47.176;27.548;2023-11-21T06:11:03;23.30;41.90
48806;DHT22;34625;47.176;27.548;2023-11-21T06:13:29;23.30;49.60
48806;DHT22;34625;47.176;27.548;2023-11-21T06:15:56;23.30;51.20
48806;DHT22;34625;47.176;27.548;2023-11-21T06:18:22;23.50;51.90
48806;DHT22;34625;47.176;27.548;2023-11-21T06:20:48;23.60;52.60
48806;DHT22;34625;47.176;27.548;2023-11-21T06:23:14;23.60;53.30
48806;DHT22;34625;47.176;27.548;2023-11-21T06:25:40;23.50;52.50
48806;DHT22;34625;47.176;27.548;2023-11-21T06:28:06;23.60;53.10
48806;DHT22;34625;47.176;27.548;2023-11-21T06:30:32;23.40;53.10
48806;DHT22;34625;47.176;27.548;2023-11-21T06:32:58;23.50;53.20
48806;DHT22;34625;47.176;27.548;2023-11-21T06:35:25;23.40;53.10
48806;DHT22;34625;47.176;27.548;2023-11-21T06:37:53;23.50;53.30
48806;DHT22;34625;47.176;27.548;2023-11-21T06:40:19;23.50;53.40
48806;DHT22;34625;47.176;27.548;2023-11-21T06:42:45;23.40;53.50
48806;DHT22;34625;47.176;27.548;2023-11-21T06:45:12;23.40;53.70
48806;DHT22;34625;47.176;27.548;2023-11-21T06:47:39;23.40;53.90
48806;DHT22;34625;47.176;27.548;2023-11-21T06:50:05;23.40;54.10
48806;DHT22;34625;47.176;27.548;2023-11-21T06:52:32;23.50;54.80
48806;DHT22;34625;47.176;27.548;2023-11-21T06:54:58;23.50;54.70
48806;DHT22;34625;47.176;27.548;2023-11-21T06:57:25;23.50;54.80
48806;DHT22;34625;47.176;27.548;2023-11-21T06:59:51;23.30;54.70
48806;DHT22;34625;47.176;27.548;2023-11-21T07:02:17;23.30;54.70
48806;DHT22;34625;47.176;27.548;2023-11-21T07:04:47;23.30;54.80
48806;DHT22;34625;47.176;27.548;2023-11-21T07:07:13;23.40;54.80
48806;DHT22;34625;47.176;27.548;2023-11-21T07:09:39;23.40;55.00
48806;DHT22;34625;47.176;27.548;2023-11-21T07:12:05;23.40;55.10
48806;DHT22;34625;47.176;27.548;2023-11-21T07:14:35;23.40;55.00
48806;DHT22;34625;47.176;27.548;2023-11-21T07:17:02;23.40;55.40
48806;DHT22;34625;47.176;27.548;2023-11-21T07:19:28;23.40;56.30
48806;DHT22;34625;47.176;27.548;2023-11-21T07:21:55;23.40;55.60
48806;DHT22;34625;47.176;27.548;2023-11-21T07:24:21;23.40;55.30
48806;DHT22;34625;47.176;27.548;2023-11-21T07:26:48;23.40;55.10
48806;DHT22;34625;47.176;27.548;2023-11-21T07:29:14;23.40;54.90
48806;DHT22;34625;47.176;27.548;2023-11-21T07:31:40;23.40;54.70
48806;DHT22;34625;47.176;27.548;2023-11-21T07:34:09;23.30;54.60
48806;DHT22;34625;47.176;27.548;2023-11-21T07:36:37;23.40;54.60
48806;DHT22;34625;47.176;27.548;2023-11-21T07:39:03;23.40;54.50
48806;DHT22;34625;47.176;27.548;2023-11-21T07:41:29;23.40;54.50
48806;DHT22;34625;47.176;27.548;2023-11-21T07:43:55;23.40;54.60
48806;DHT22;34625;47.176;27.548;2023-11-21T07:46:21;23.50;54.70
48806;DHT22;34625;47.176;27.548;2023-11-21T07:48:48;23.40;54.60
48806;DHT22;34625;47.176;27.548;2023-11-21T07:51:14;23.40;54.50
48806;DHT22;34625;47.176;27.548;2023-11-21T07:53:39;23.40;54.50
48806;DHT22;34625;47.176;27.548;2023-11-21T07:56:07;23.40;54.40
48806;DHT22;34625;47.176;27.548;2023-11-21T07:58:36;23.40;54.40
48806;DHT22;34625;47.176;27.548;2023-11-21T08:01:03;23.40;54.30
48806;DHT22;34625;47.176;27.548;2023-11-21T08:03:30;23.40;54.20
48806;DHT22;34625;47.176;27.548;2023-11-21T08:05:57;23.30;54.20
48806;DHT22;34625;47.176;27.548;2023-11-21T08:08:24;23.30;54.20
48806;DHT22;34625;47.176;27.548;2023-11-21T08:10:50;23.30;54.30
48806;DHT22;34625;47.176;27.548;2023-11-21T08:13:23;23.30;54.20
48806;DHT22;34625;47.176;27.548;2023-11-21T08:15:50;23.30;54.30
48806;DHT22;34625;47.176;27.548;2023-11-21T08:18:16;23.20;54.20
48806;DHT22;34625;47.176;27.548;2023-11-21T08:20:44;23.30;54.40
48806;DHT22;34625;47.176;27.548;2023-11-21T08:23:14;23.20;54.30
48806;DHT22;34625;47.176;27.548;2023-11-21T08:25:44;23.20;54.20
48806;DHT22;34625;47.176;27.548;2023-11-21T08:28:10;23.30;54.30
48806;DHT22;34625;47.176;27.548;2023-11-21T08:30:37;23.10;54.30
48806;DHT22;34625;47.176;27.548;2023-11-21T08:33:02;23.20;54.30
48806;DHT22;34625;47.176;27.548;2023-11-21T08:35:29;23.10;54.30
48806;DHT22;34625;47.176;27.548;2023-11-21T08:37:55;23.20;54.30
48806;DHT22;34625;47.176;27.548;2023-11-21T08:40:21;23.10;54.30
48806;DHT22;34625;47.176;27.548;2023-11-21T08:42:47;23.10;54.30
48806;DHT22;34625;47.176;27.548;2023-11-21T08:45:14;23.10;54.30
48806;DHT22;34625;47.176;27.548;2023-11-21T08:47:41;23.10;54.30
48806;DHT22;34625;47.176;27.548;2023-11-21T08:50:10;23.00;54.30
48806;DHT22;34625;47.176;27.548;2023-11-21T08:52:38;23.00;54.40
48806;DHT22;34625;47.176;27.548;2023-11-21T08:55:05;23.10;54.40
48806;DHT22;34625;47.176;27.548;2023-11-21T08:57:40;23.10;54.40
48806;DHT22;34625;47.176;27.548;2023-11-21T09:00:08;23.10;54.40
48806;DHT22;34625;47.176;27.548;2023-11-21T09:02:38;23.10;54.40
48806;DHT22;34625;47.176;27.548;2023-11-21T09:05:11;23.10;54.30
48806;DHT22;34625;47.176;27.548;2023-11-21T09:07:38;23.20;54.30
48806;DHT22;34625;47.176;27.548;2023-11-21T09:10:05;23.10;54.30
48806;DHT22;34625;47.176;27.548;2023-11-21T09:12:34;23.10;54.20
48806;DHT22;34625;47.176;27.548;2023-11-21T09:15:05;23.20;54.20
48806;DHT22;34625;47.176;27.548;2023-11-21T09:17:32;23.20;54.20
48806;DHT22;34625;47.176;27.548;2023-11-21T09:19:59;23.30;54.30
48806;DHT22;34625;47.176;27.548;2023-11-21T09:22:25;23.20;54.10
48806;DHT22;34625;47.176;27.548;2023-11-21T09:24:52;23.30;54.20
48806;DHT22;34625;47.176;27.548;2023-11-21T09:27:19;23.20;54.10
48806;DHT22;34625;47.176;27.548;2023-11-21T09:29:47;23.30;54.20
48806;DHT22;34625;47.176;27.548;2023-11-21T09:32:14;23.30;54.10
48806;DHT22;34625;47.176;27.548;2023-11-21T09:34:44;23.20;54.10
48806;DHT22;34625;47.176;27.548;2023-11-21T09:37:10;23.20;54.10
48806;DHT22;34625;47.176;27.548;2023-11-21T09:39:36;23.30;54.10
48806;DHT22;34625;47.176;27.548;2023-11-21T09:42:28;23.20;54.00
48806;DHT22;34625;47.176;27.548;2023-11-21T09:47:39;23.30;54.00
48806;DHT22;34625;47.176;27.548;2023-11-21T09:50:06;23.40;53.90
48806;DHT22;34625;47.176;27.548;2023-11-21T09:53:17;23.40;53.80
48806;DHT22;34625;47.176;27.548;2023-11-21T09:55:45;23.30;53.80
48806;DHT22;34625;47.176;27.548;2023-11-21T09:58:13;23.30;53.80
48806;DHT22;34625;47.176;27.548;2023-11-21T10:00:50;23.40;53.70
48806;DHT22;34625;47.176;27.548;2023-11-21T10:03:18;23.40;53.70
48806;DHT22;34625;47.176;27.548;2023-11-21T10:05:45;23.40;53.70
48806;DHT22;34625;47.176;27.548;2023-11-21T10:08:15;23.30;53.70
48806;DHT22;34625;47.176;27.548;2023-11-21T10:10:46;23.40;53.60
48806;DHT22;34625;47.176;27.548;2023-11-21T10:13:15;23.40;53.60
48806;DHT22;34625;47.176;27.548;2023-11-21T10:15:44;23.40;53.60
48806;DHT22;34625;47.176;27.548;2023-11-21T10:18:15;23.40;53.50
48806;DHT22;34625;47.176;27.548;2023-11-21T10:20:41;23.50;53.50
48806;DHT22;34625;47.176;27.548;2023-11-21T10:23:08;23.40;53.50
48806;DHT22;34625;47.176;27.548;2023-11-21T10:25:37;23.40;53.40
48806;DHT22;34625;47.176;27.548;2023-11-21T10:28:04;23.40;53.30
48806;DHT22;34625;47.176;27.548;2023-11-21T10:30:37;23.30;53.30
48806;DHT22;34625;47.176;27.548;2023-11-21T10:33:07;23.50;55.70
48806;DHT22;34625;47.176;27.548;2023-11-21T10:35:43;24.00;58.50
48806;DHT22;34625;47.176;27.548;2023-11-21T10:38:14;24.50;61.60
48806;DHT22;34625;47.176;27.548;2023-11-21T10:40:41;24.90;68.40
48806;DHT22;34625;47.176;27.548;2023-11-21T10:43:11;25.20;69.40
48806;DHT22;34625;47.176;27.548;2023-11-21T10:45:41;25.00;61.80
48806;DHT22;34625;47.176;27.548;2023-11-21T10:48:12;24.70;58.60
48806;DHT22;34625;47.176;27.548;2023-11-21T10:50:46;24.60;57.20
48806;DHT22;34625;47.176;27.548;2023-11-21T10:53:13;24.50;56.40
48806;DHT22;34625;47.176;27.548;2023-11-21T10:55:39;24.20;55.70
48806;DHT22;34625;47.176;27.548;2023-11-21T10:58:05;24.10;55.40
48806;DHT22;34625;47.176;27.548;2023-11-21T11:00:33;24.20;55.20
48806;DHT22;34625;47.176;27.548;2023-11-21T11:02:59;23.90;54.90
48806;DHT22;34625;47.176;27.548;2023-11-21T11:05:27;24.10;54.80
48806;DHT22;34625;47.176;27.548;2023-11-21T11:08:08;24.10;54.70
48806;DHT22;34625;47.176;27.548;2023-11-21T11:10:37;23.80;54.40
48806;DHT22;34625;47.176;27.548;2023-11-21T11:13:04;24.00;54.50
48806;DHT22;34625;47.176;27.548;2023-11-21T11:15:32;23.90;54.50
48806;DHT22;34625;47.176;27.548;2023-11-21T11:17:59;23.80;54.40
48806;DHT22;34625;47.176;27.548;2023-11-21T11:20:35;23.90;54.50
48806;DHT22;34625;47.176;27.548;2023-11-21T11:37:19;24.80;74.40
48806;DHT22;34625;47.176;27.548;2023-11-21T11:39:45;25.00;75.20
48806;DHT22;34625;47.176;27.548;2023-11-21T11:42:13;25.10;74.80
48806;DHT22;34625;47.176;27.548;2023-11-21T11:47:31;25.00;59.80
48806;DHT22;34625;47.176;27.548;2023-11-21T11:55:12;24.50;58.10
48806;DHT22;34625;47.176;27.548;2023-11-21T11:57:46;24.60;57.80
48806;DHT22;34625;47.176;27.548;2023-11-21T12:02:51;24.40;57.30
48806;DHT22;34625;47.176;27.548;2023-11-21T12:05:19;24.30;57.00
48806;DHT22;34625;47.176;27.548;2023-11-21T12:07:53;24.30;56.90
48806;DHT22;34625;47.176;27.548;2023-11-21T12:10:29;24.20;56.70
48806;DHT22;34625;47.176;27.548;2023-11-21T12:13:06;24.10;56.60
48806;DHT22;34625;47.176;27.548;2023-11-21T12:15:38;24.00;56.50
48806;DHT22;34625;47.176;27.548;2023-11-21T12:18:04;24.10;56.50
48806;DHT22;34625;47.176;27.548;2023-11-21T12:20:31;24.00;56.40
48806;DHT22;34625;47.176;27.548;2023-11-21T12:22:59;24.00;56.40
48806;DHT22;34625;47.176;27.548;2023-11-21T12:25:27;23.90;56.40
48806;DHT22;34625;47.176;27.548;2023-11-21T12:28:01;23.90;56.50
48806;DHT22;34625;47.176;27.548;2023-11-21T12:30:30;23.80;56.30
48806;DHT22;34625;47.176;27.548;2023-11-21T12:33:02;23.90;56.40
48806;DHT22;34625;47.176;27.548;2023-11-21T12:35:32;23.90;56.40
48806;DHT22;34625;47.176;27.548;2023-11-21T12:38:03;23.80;56.20
48806;DHT22;34625;47.176;27.548;2023-11-21T12:40:30;23.70;56.20
48806;DHT22;34625;47.176;27.548;2023-11-21T12:42:59;23.90;56.20
48806;DHT22;34625;47.176;27.548;2023-11-21T12:45:27;23.80;56.00
48806;DHT22;34625;47.176;27.548;2023-11-21T12:48:02;23.90;56.10
48806;DHT22;34625;47.176;27.548;2023-11-21T12:50:30;23.70;56.00
48806;DHT22;34625;47.176;27.548;2023-11-21T12:53:01;23.90;56.00
48806;DHT22;34625;47.176;27.548;2023-11-21T12:55:33;23.90;55.90
48806;DHT22;34625;47.176;27.548;2023-11-21T12:58:08;23.70;55.70
48806;DHT22;34625;47.176;27.548;2023-11-21T13:00:37;23.70;55.60
48806;DHT22;34625;47.176;27.548;2023-11-21T13:03:08;23.70;55.50
48806;DHT22;34625;47.176;27.548;2023-11-21T13:05:39;23.70;55.50
48806;DHT22;34625;47.176;27.548;2023-11-21T13:08:09;23.70;55.40
48806;DHT22;34625;47.176;27.548;2023-11-21T13:10:43;23.60;55.10
48806;DHT22;34625;47.176;27.548;2023-11-21T13:13:11;23.60;55.10
48806;DHT22;34625;47.176;27.548;2023-11-21T13:18:16;23.60;55.10
48806;DHT22;34625;47.176;27.548;2023-11-21T13:20:43;23.50;55.10
48806;DHT22;34625;47.176;27.548;2023-11-21T13:23:10;23.50;55.10
48806;DHT22;34625;47.176;27.548;2023-11-21T13:25:42;23.60;55.00
48806;DHT22;34625;47.176;27.548;2023-11-21T13:28:08;23.50;55.40
48806;DHT22;34625;47.176;27.548;2023-11-21T13:30:38;23.70;52.00
48806;DHT22;34625;47.176;27.548;2023-11-21T13:33:06;23.70;52.50
48806;DHT22;34625;47.176;27.548;2023-11-21T13:35:35;23.70;55.20
48806;DHT22;34625;47.176;27.548;2023-11-21T13:38:09;23.70;45.90
48806;DHT22;34625;47.176;27.548;2023-11-21T13:40:36;23.40;45.40
48806;DHT22;34625;47.176;27.548;2023-11-21T13:43:09;23.50;44.80
48806;DHT22;34625;47.176;27.548;2023-11-21T13:45:36;23.40;45.20
48806;DHT22;34625;47.176;27.548;2023-11-21T13:48:03;23.40;44.30
48806;DHT22;34625;47.176;27.548;2023-11-21T13:50:31;23.40;43.90
48806;DHT22;34625;47.176;27.548;2023-11-21T13:53:02;23.30;45.50
48806;DHT22;34625;47.176;27.548;2023-11-21T13:55:44;23.30;45.70
48806;DHT22;34625;47.176;27.548;2023-11-21T13:58:11;23.40;46.40
48806;DHT22;34625;47.176;27.548;2023-11-21T14:00:44;23.40;46.30
48806;DHT22;34625;47.176;27.548;2023-11-21T14:03:21;23.60;50.90
48806;DHT22;34625;47.176;27.548;2023-11-21T14:05:48;23.70;52.40
48806;DHT22;34625;47.176;27.548;2023-11-21T14:08:21;23.90;52.50
48806;DHT22;34625;47.176;27.548;2023-11-21T14:10:47;23.80;52.60
48806;DHT22;34625;47.176;27.548;2023-11-21T14:13:19;23.70;52.80
48806;DHT22;34625;47.176;27.548;2023-11-21T14:15:49;23.90;52.80
48806;DHT22;34625;47.176;27.548;2023-11-21T14:18:18;23.90;52.90
48806;DHT22;34625;47.176;27.548;2023-11-21T14:20:52;23.80;52.90
48806;DHT22;34625;47.176;27.548;2023-11-21T14:23:17;23.90;53.20
48806;DHT22;34625;47.176;27.548;2023-11-21T14:25:44;23.90;53.40
48806;DHT22;34625;47.176;27.548;2023-11-21T14:28:09;23.80;54.90
48806;DHT22;34625;47.176;27.548;2023-11-21T14:30:38;23.80;56.10
48806;DHT22;34625;47.176;27.548;2023-11-21T14:33:05;23.90;56.30
48806;DHT22;34625;47.176;27.548;2023-11-21T14:35:32;23.90;55.50
48806;DHT22;34625;47.176;27.548;2023-11-21T14:38:01;23.80;55.10
48806;DHT22;34625;47.176;27.548;2023-11-21T14:40:33;23.80;54.90
48806;DHT22;34625;47.176;27.548;2023-11-21T14:43:02;23.80;54.70
48806;DHT22;34625;47.176;27.548;2023-11-21T14:45:35;23.90;54.10
48806;DHT22;34625;47.176;27.548;2023-11-21T14:48:01;23.80;52.30
48806;DHT22;34625;47.176;27.548;2023-11-21T14:50:52;23.90;50.90
48806;DHT22;34625;47.176;27.548;2023-11-21T14:53:30;23.80;49.20
48806;DHT22;34625;47.176;27.548;2023-11-21T14:56:14;23.80;48.20
48806;DHT22;34625;47.176;27.548;2023-11-21T14:58:48;23.70;46.90
48806;DHT22;34625;47.176;27.548;2023-11-21T15:01:14;23.70;46.50
48806;DHT22;34625;47.176;27.548;2023-11-21T15:03:49;23.70;46.40
48806;DHT22;34625;47.176;27.548;2023-11-21T15:06:16;23.70;46.60
48806;DHT22;34625;47.176;27.548;2023-11-21T15:09:00;23.60;46.60
48806;DHT22;34625;47.176;27.548;2023-11-21T15:11:36;23.70;46.90
48806;DHT22;34625;47.176;27.548;2023-11-21T15:14:04;23.70;47.10
48806;DHT22;34625;47.176;27.548;2023-11-21T15:16:35;23.70;47.40
48806;DHT22;34625;47.176;27.548;2023-11-21T15:19:16;23.70;47.50
48806;DHT22;34625;47.176;27.548;2023-11-21T15:21:44;23.60;47.60
48806;DHT22;34625;47.176;27.548;2023-11-21T15:24:12;23.70;47.80
48806;DHT22;34625;47.176;27.548;2023-11-21T15:26:38;23.70;48.00
48806;DHT22;34625;47.176;27.548;2023-11-21T15:29:05;23.70;48.00
48806;DHT22;34625;47.176;27.548;2023-11-21T15:31:31;23.50;47.90
48806;DHT22;34625;47.176;27.548;2023-11-21T15:33:57;23.60;47.80
48806;DHT22;34625;47.176;27.548;2023-11-21T15:36:28;23.50;48.10
48806;DHT22;34625;47.176;27.548;2023-11-21T15:38:54;23.50;48.50
48806;DHT22;34625;47.176;27.548;2023-11-21T15:41:20;23.60;48.70
48806;DHT22;34625;47.176;27.548;2023-11-21T15:43:47;23.50;49.10
48806;DHT22;34625;47.176;27.548;2023-11-21T15:46:14;23.50;49.50
48806;DHT22;34625;47.176;27.548;2023-11-21T15:48:40;23.50;50.10
48806;DHT22;34625;47.176;27.548;2023-11-21T15:51:12;23.40;49.70